sensor_id;sensor_type;location;lat;lon;timestamp;temperature;humidity
60717;DHT22;46566;52.700;6.192;2022-10-17T00:00:55;13.50;99.90
60717;DHT22;46566;52.700;6.192;2022-10-17T00:03:21;13.50;99.90
60717;DHT22;46566;52.700;6.192;2022-10-17T00:05:47;13.50;99.90
60717;DHT22;46566;52.700;6.192;2022-10-17T00:08:15;13.60;99.90
60717;DHT22;46566;52.700;6.192;2022-10-17T00:10:41;13.60;99.90
60717;DHT22;46566;52.700;6.192;2022-10-17T00:13:08;13.60;99.90
60717;DHT22;46566;52.700;6.192;2022-10-17T00:15:34;13.60;99.90
60717;DHT22;46566;52.700;6.192;2022-10-17T00:18:00;13.60;99.90
60717;DHT22;46566;52.700;6.192;2022-10-17T00:20:26;13.60;99.90
60717;DHT22;46566;52.700;6.192;2022-10-17T00:22:52;13.60;99.90
60717;DHT22;46566;52.700;6.192;2022-10-17T00:25:18;13.70;99.90
60717;DHT22;46566;52.700;6.192;2022-10-17T00:27:44;13.70;99.90
60717;DHT22;46566;52.700;6.192;2022-10-17T00:30:13;13.70;99.90
60717;DHT22;46566;52.700;6.192;2022-10-17T00:32:39;13.70;99.90
60717;DHT22;46566;52.700;6.192;2022-10-17T00:35:05;13.70;99.90
60717;DHT22;46566;52.700;6.192;2022-10-17T00:37:32;13.70;99.90
60717;DHT22;46566;52.700;6.192;2022-10-17T00:39:58;13.70;99.90
60717;DHT22;46566;52.700;6.192;2022-10-17T00:42:25;13.70;99.90
60717;DHT22;46566;52.700;6.192;2022-10-17T00:45:17;13.70;99.90
60717;DHT22;46566;52.700;6.192;2022-10-17T00:47:47;13.70;99.90
60717;DHT22;46566;52.700;6.192;2022-10-17T00:50:15;13.70;99.90
60717;DHT22;46566;52.700;6.192;2022-10-17T00:52:41;13.70;99.90
60717;DHT22;46566;52.700;6.192;2022-10-17T00:55:16;13.70;99.90
60717;DHT22;46566;52.700;6.192;2022-10-17T00:57:43;13.70;99.90
60717;DHT22;46566;52.700;6.192;2022-10-17T01:00:12;13.70;99.90
60717;DHT22;46566;52.700;6.192;2022-10-17T01:02:39;13.70;99.90
60717;DHT22;46566;52.700;6.192;2022-10-17T01:05:06;13.70;99.90
60717;DHT22;46566;52.700;6.192;2022-10-17T01:07:34;13.70;99.90
60717;DHT22;46566;52.700;6.192;2022-10-17T01:10:00;13.60;99.90
60717;DHT22;46566;52.700;6.192;2022-10-17T01:12:36;13.60;99.90
60717;DHT22;46566;52.700;6.192;2022-10-17T01:15:19;13.60;99.90
60717;DHT22;46566;52.700;6.192;2022-10-17T01:32:01;13.40;99.90
60717;DHT22;46566;52.700;6.192;2022-10-17T01:39:42;13.40;99.90
60717;DHT22;46566;52.700;6.192;2022-10-17T01:42:35;13.40;99.90
60717;DHT22;46566;52.700;6.192;2022-10-17T01:45:15;13.50;99.90
60717;DHT22;46566;52.700;6.192;2022-10-17T01:47:45;13.50;99.90
60717;DHT22;46566;52.700;6.192;2022-10-17T01:50:22;13.50;99.90
60717;DHT22;46566;52.700;6.192;2022-10-17T01:52:55;13.50;99.90
60717;DHT22;46566;52.700;6.192;2022-10-17T01:55:29;13.50;99.90
60717;DHT22;46566;52.700;6.192;2022-10-17T01:58:09;13.50;99.90
60717;DHT22;46566;52.700;6.192;2022-10-17T02:00:37;13.50;99.90
60717;DHT22;46566;52.700;6.192;2022-10-17T02:03:08;13.50;99.90
60717;DHT22;46566;52.700;6.192;2022-10-17T02:05:38;13.50;99.90
60717;DHT22;46566;52.700;6.192;2022-10-17T02:08:05;13.50;99.90
60717;DHT22;46566;52.700;6.192;2022-10-17T02:16:02;13.40;99.90
60717;DHT22;46566;52.700;6.192;2022-10-17T02:21:32;13.40;99.90
60717;DHT22;46566;52.700;6.192;2022-10-17T02:24:31;13.40;99.90
60717;DHT22;46566;52.700;6.192;2022-10-17T02:29:35;13.40;99.90
60717;DHT22;46566;52.700;6.192;2022-10-17T02:32:12;13.40;99.90
60717;DHT22;46566;52.700;6.192;2022-10-17T02:34:45;13.40;99.90
60717;DHT22;46566;52.700;6.192;2022-10-17T02:37:15;13.40;99.90
60717;DHT22;46566;52.700;6.192;2022-10-17T02:39:42;13.40;99.90
60717;DHT22;46566;52.700;6.192;2022-10-17T02:42:11;13.40;99.90
60717;DHT22;46566;52.700;6.192;2022-10-17T02:44:40;13.40;99.90
60717;DHT22;46566;52.700;6.192;2022-10-17T02:47:21;13.40;99.90
60717;DHT22;46566;52.700;6.192;2022-10-17T02:49:53;13.30;99.90
60717;DHT22;46566;52.700;6.192;2022-10-17T02:52:35;13.40;99.90
60717;DHT22;46566;52.700;6.192;2022-10-17T02:58:22;13.30;99.90
60717;DHT22;46566;52.700;6.192;2022-10-17T03:00:29;13.40;99.90
60717;DHT22;46566;52.700;6.192;2022-10-17T03:02:55;13.40;99.90
60717;DHT22;46566;52.700;6.192;2022-10-17T03:05:23;13.40;99.90
60717;DHT22;46566;52.700;6.192;2022-10-17T03:07:50;13.30;99.90
60717;DHT22;46566;52.700;6.192;2022-10-17T03:10:16;13.40;99.90
60717;DHT22;46566;52.700;6.192;2022-10-17T03:12:42;13.40;99.90
60717;DHT22;46566;52.700;6.192;2022-10-17T03:15:09;13.40;99.90
60717;DHT22;46566;52.700;6.192;2022-10-17T03:17:36;13.40;99.90
60717;DHT22;46566;52.700;6.192;2022-10-17T03:20:02;13.40;99.90
60717;DHT22;46566;52.700;6.192;2022-10-17T03:22:29;13.40;99.90
60717;DHT22;46566;52.700;6.192;2022-10-17T03:24:56;13.40;99.90
60717;DHT22;46566;52.700;6.192;2022-10-17T03:27:22;13.40;99.90
60717;DHT22;46566;52.700;6.192;2022-10-17T03:29:48;13.40;99.90
60717;DHT22;46566;52.700;6.192;2022-10-17T03:32:14;13.40;99.90
60717;DHT22;46566;52.700;6.192;2022-10-17T03:34:40;13.40;99.90
60717;DHT22;46566;52.700;6.192;2022-10-17T03:37:06;13.40;99.90
60717;DHT22;46566;52.700;6.192;2022-10-17T03:39:34;13.40;99.90
60717;DHT22;46566;52.700;6.192;2022-10-17T03:41:59;13.40;99.90
60717;DHT22;46566;52.700;6.192;2022-10-17T03:44:25;13.40;99.90
60717;DHT22;46566;52.700;6.192;2022-10-17T03:46:51;13.40;99.90
60717;DHT22;46566;52.700;6.192;2022-10-17T03:49:16;13.40;99.90
60717;DHT22;46566;52.700;6.192;2022-10-17T03:51:42;13.40;99.90
60717;DHT22;46566;52.700;6.192;2022-10-17T03:54:11;13.40;99.90
60717;DHT22;46566;52.700;6.192;2022-10-17T03:56:38;13.40;99.90
60717;DHT22;46566;52.700;6.192;2022-10-17T03:59:12;13.40;99.90
60717;DHT22;46566;52.700;6.192;2022-10-17T04:01:38;13.40;99.90
60717;DHT22;46566;52.700;6.192;2022-10-17T04:04:04;13.40;99.90
60717;DHT22;46566;52.700;6.192;2022-10-17T04:06:33;13.40;99.90
60717;DHT22;46566;52.700;6.192;2022-10-17T04:08:59;13.40;99.90
60717;DHT22;46566;52.700;6.192;2022-10-17T04:11:31;13.40;99.90
60717;DHT22;46566;52.700;6.192;2022-10-17T04:13:59;13.40;99.90
60717;DHT22;46566;52.700;6.192;2022-10-17T04:16:26;13.50;99.90
60717;DHT22;46566;52.700;6.192;2022-10-17T04:18:58;13.50;99.90
60717;DHT22;46566;52.700;6.192;2022-10-17T04:21:28;13.50;99.90
60717;DHT22;46566;52.700;6.192;2022-10-17T04:23:59;13.50;99.90
60717;DHT22;46566;52.700;6.192;2022-10-17T04:26:48;13.50;99.90
60717;DHT22;46566;52.700;6.192;2022-10-17T04:29:15;13.50;99.90
60717;DHT22;46566;52.700;6.192;2022-10-17T04:31:42;13.60;99.90
60717;DHT22;46566;52.700;6.192;2022-10-17T04:34:37;13.60;99.90
60717;DHT22;46566;52.700;6.192;2022-10-17T04:37:03;13.70;99.90
60717;DHT22;46566;52.700;6.192;2022-10-17T04:39:28;13.70;99.90
60717;DHT22;46566;52.700;6.192;2022-10-17T04:41:54;13.80;99.90
60717;DHT22;46566;52.700;6.192;2022-10-17T04:44:21;13.80;99.90
60717;DHT22;46566;52.700;6.192;2022-10-17T04:46:50;13.90;99.90
60717;DHT22;46566;52.700;6.192;2022-10-17T04:49:16;13.90;99.90
60717;DHT22;46566;52.700;6.192;2022-10-17T04:51:44;14.00;99.90
60717;DHT22;46566;52.700;6.192;2022-10-17T04:54:19;14.00;99.90
60717;DHT22;46566;52.700;6.192;2022-10-17T04:56:50;14.00;99.90
60717;DHT22;46566;52.700;6.192;2022-10-17T04:59:16;14.10;99.90
60717;DHT22;46566;52.700;6.192;2022-10-17T05:01:47;14.10;99.90
60717;DHT22;46566;52.700;6.192;2022-10-17T05:04:13;14.10;99.90
60717;DHT22;46566;52.700;6.192;2022-10-17T05:06:38;14.10;99.90
60717;DHT22;46566;52.700;6.192;2022-10-17T05:09:16;14.10;99.90
60717;DHT22;46566;52.700;6.192;2022-10-17T05:11:42;14.20;99.90
60717;DHT22;46566;52.700;6.192;2022-10-17T05:14:09;14.20;99.90
60717;DHT22;46566;52.700;6.192;2022-10-17T05:16:35;14.30;99.90
60717;DHT22;46566;52.700;6.192;2022-10-17T05:19:01;14.30;99.90
60717;DHT22;46566;52.700;6.192;2022-10-17T05:21:35;14.30;99.90
60717;DHT22;46566;52.700;6.192;2022-10-17T05:24:10;14.40;99.90
60717;DHT22;46566;52.700;6.192;2022-10-17T05:26:38;14.40;99.90
60717;DHT22;46566;52.700;6.192;2022-10-17T05:29:04;14.50;99.90
60717;DHT22;46566;52.700;6.192;2022-10-17T05:31:33;14.50;99.90
60717;DHT22;46566;52.700;6.192;2022-10-17T05:34:00;14.50;99.90
60717;DHT22;46566;52.700;6.192;2022-10-17T05:36:28;14.50;99.90
60717;DHT22;46566;52.700;6.192;2022-10-17T05:38:54;14.60;99.90
60717;DHT22;46566;52.700;6.192;2022-10-17T05:41:20;14.70;99.90
60717;DHT22;46566;52.700;6.192;2022-10-17T05:43:47;14.80;99.90
60717;DHT22;46566;52.700;6.192;2022-10-17T05:46:17;14.80;99.90
60717;DHT22;46566;52.700;6.192;2022-10-17T05:48:43;14.90;99.90
60717;DHT22;46566;52.700;6.192;2022-10-17T05:51:10;15.00;99.90
60717;DHT22;46566;52.700;6.192;2022-10-17T05:53:38;15.10;99.90
60717;DHT22;46566;52.700;6.192;2022-10-17T05:56:09;15.10;99.90
60717;DHT22;46566;52.700;6.192;2022-10-17T05:58:39;15.20;99.90
60717;DHT22;46566;52.700;6.192;2022-10-17T06:01:06;15.20;99.90
60717;DHT22;46566;52.700;6.192;2022-10-17T06:03:32;15.30;99.90
60717;DHT22;46566;52.700;6.192;2022-10-17T06:06:03;15.30;99.90
60717;DHT22;46566;52.700;6.192;2022-10-17T06:08:29;15.30;99.90
60717;DHT22;46566;52.700;6.192;2022-10-17T06:10:55;15.30;99.90
60717;DHT22;46566;52.700;6.192;2022-10-17T06:13:21;15.30;99.90
60717;DHT22;46566;52.700;6.192;2022-10-17T06:15:50;15.30;99.90
60717;DHT22;46566;52.700;6.192;2022-10-17T06:18:16;15.50;99.90
60717;DHT22;46566;52.700;6.192;2022-10-17T06:20:42;15.50;99.90
60717;DHT22;46566;52.700;6.192;2022-10-17T06:23:08;15.40;99.90
60717;DHT22;46566;52.700;6.192;2022-10-17T06:25:52;15.50;99.90
60717;DHT22;46566;52.700;6.192;2022-10-17T06:28:18;15.40;99.90
60717;DHT22;46566;52.700;6.192;2022-10-17T06:30:47;15.40;99.90
60717;DHT22;46566;52.700;6.192;2022-10-17T06:33:13;15.50;99.90
60717;DHT22;46566;52.700;6.192;2022-10-17T06:35:39;15.50;99.90
60717;DHT22;46566;52.700;6.192;2022-10-17T06:38:04;15.50;99.90
60717;DHT22;46566;52.700;6.192;2022-10-17T06:40:31;15.50;99.90
60717;DHT22;46566;52.700;6.192;2022-10-17T06:42:58;15.60;99.90
60717;DHT22;46566;52.700;6.192;2022-10-17T06:45:37;15.60;99.90
60717;DHT22;46566;52.700;6.192;2022-10-17T06:48:26;15.60;99.90
60717;DHT22;46566;52.700;6.192;2022-10-17T06:51:08;15.60;99.90
60717;DHT22;46566;52.700;6.192;2022-10-17T06:53:45;15.60;99.90
60717;DHT22;46566;52.700;6.192;2022-10-17T06:56:30;15.60;99.90
60717;DHT22;46566;52.700;6.192;2022-10-17T06:59:09;15.70;99.90
60717;DHT22;46566;52.700;6.192;2022-10-17T07:01:37;15.70;99.90
60717;DHT22;46566;52.700;6.192;2022-10-17T07:04:04;15.70;99.90
60717;DHT22;46566;52.700;6.192;2022-10-17T07:06:30;15.70;99.90
60717;DHT22;46566;52.700;6.192;2022-10-17T07:09:00;15.80;99.90
60717;DHT22;46566;52.700;6.192;2022-10-17T07:11:27;15.80;99.90
60717;DHT22;46566;52.700;6.192;2022-10-17T07:13:53;15.80;99.90
60717;DHT22;46566;52.700;6.192;2022-10-17T07:16:20;15.90;99.90
60717;DHT22;46566;52.700;6.192;2022-10-17T07:18:50;15.90;99.90
60717;DHT22;46566;52.700;6.192;2022-10-17T07:21:17;16.00;99.90
60717;DHT22;46566;52.700;6.192;2022-10-17T07:23:43;16.00;99.90
60717;DHT22;46566;52.700;6.192;2022-10-17T07:26:11;16.10;99.90
60717;DHT22;46566;52.700;6.192;2022-10-17T07:28:40;16.10;99.90
60717;DHT22;46566;52.700;6.192;2022-10-17T07:31:20;16.10;99.90
60717;DHT22;46566;52.700;6.192;2022-10-17T07:33:47;16.20;99.90
60717;DHT22;46566;52.700;6.192;2022-10-17T07:36:14;16.30;99.90
60717;DHT22;46566;52.700;6.192;2022-10-17T07:38:40;16.30;99.90
60717;DHT22;46566;52.700;6.192;2022-10-17T07:41:08;16.30;99.90
60717;DHT22;46566;52.700;6.192;2022-10-17T07:43:34;16.30;99.90
60717;DHT22;46566;52.700;6.192;2022-10-17T07:46:04;16.30;99.90
60717;DHT22;46566;52.700;6.192;2022-10-17T07:48:31;16.40;99.90
60717;DHT22;46566;52.700;6.192;2022-10-17T07:51:01;16.30;99.90
60717;DHT22;46566;52.700;6.192;2022-10-17T07:53:27;16.40;99.90
60717;DHT22;46566;52.700;6.192;2022-10-17T07:55:52;16.30;99.90
60717;DHT22;46566;52.700;6.192;2022-10-17T07:58:18;16.40;99.90
60717;DHT22;46566;52.700;6.192;2022-10-17T08:00:46;16.40;99.90
60717;DHT22;46566;52.700;6.192;2022-10-17T08:03:15;16.30;99.90
60717;DHT22;46566;52.700;6.192;2022-10-17T08:05:41;16.40;99.90
60717;DHT22;46566;52.700;6.192;2022-10-17T08:08:07;16.30;99.90
60717;DHT22;46566;52.700;6.192;2022-10-17T08:10:32;16.40;99.90
60717;DHT22;46566;52.700;6.192;2022-10-17T08:12:58;16.30;99.90
60717;DHT22;46566;52.700;6.192;2022-10-17T08:15:25;16.30;99.90
60717;DHT22;46566;52.700;6.192;2022-10-17T08:17:50;16.30;99.90
60717;DHT22;46566;52.700;6.192;2022-10-17T08:20:16;16.30;99.90
60717;DHT22;46566;52.700;6.192;2022-10-17T08:22:42;16.30;99.90
60717;DHT22;46566;52.700;6.192;2022-10-17T08:25:11;16.30;99.90
60717;DHT22;46566;52.700;6.192;2022-10-17T08:27:37;16.30;99.90
60717;DHT22;46566;52.700;6.192;2022-10-17T08:30:03;16.30;99.90
60717;DHT22;46566;52.700;6.192;2022-10-17T08:32:28;16.30;99.90
60717;DHT22;46566;52.700;6.192;2022-10-17T08:34:55;16.30;99.90
60717;DHT22;46566;52.700;6.192;2022-10-17T08:37:22;16.30;99.90
60717;DHT22;46566;52.700;6.192;2022-10-17T08:39:48;16.30;99.90
60717;DHT22;46566;52.700;6.192;2022-10-17T08:47:35;16.30;99.90
60717;DHT22;46566;52.700;6.192;2022-10-17T08:50:04;16.30;99.90
60717;DHT22;46566;52.700;6.192;2022-10-17T08:55:00;16.30;99.90
60717;DHT22;46566;52.700;6.192;2022-10-17T08:57:26;16.30;99.90
60717;DHT22;46566;52.700;6.192;2022-10-17T08:59:53;16.30;99.90
60717;DHT22;46566;52.700;6.192;2022-10-17T09:02:40;16.30;99.90
60717;DHT22;46566;52.700;6.192;2022-10-17T09:05:18;16.30;99.90
60717;DHT22;46566;52.700;6.192;2022-10-17T09:08:15;16.30;99.90
60717;DHT22;46566;52.700;6.192;2022-10-17T09:10:56;16.30;99.90
60717;DHT22;46566;52.700;6.192;2022-10-17T09:19:21;16.40;99.90
60717;DHT22;46566;52.700;6.192;2022-10-17T09:22:03;16.40;99.90
60717;DHT22;46566;52.700;6.192;2022-10-17T09:24:50;16.40;99.90
60717;DHT22;46566;52.700;6.192;2022-10-17T09:27:31;16.40;99.90
60717;DHT22;46566;52.700;6.192;2022-10-17T09:32:39;16.40;99.90
60717;DHT22;46566;52.700;6.192;2022-10-17T09:35:12;16.40;99.90
60717;DHT22;46566;52.700;6.192;2022-10-17T09:37:39;16.50;99.90
60717;DHT22;46566;52.700;6.192;2022-10-17T09:40:07;16.40;99.90
60717;DHT22;46566;52.700;6.192;2022-10-17T09:42:37;16.40;99.90
60717;DHT22;46566;52.700;6.192;2022-10-17T09:48:14;16.40;99.90
60717;DHT22;46566;52.700;6.192;2022-10-17T09:50:44;16.30;99.90
60717;DHT22;46566;52.700;6.192;2022-10-17T09:53:14;16.30;99.90
60717;DHT22;46566;52.700;6.192;2022-10-17T09:55:49;16.30;99.90
60717;DHT22;46566;52.700;6.192;2022-10-17T09:58:15;16.30;99.90
60717;DHT22;46566;52.700;6.192;2022-10-17T10:00:46;16.30;99.90
60717;DHT22;46566;52.700;6.192;2022-10-17T10:05:44;16.30;99.90
60717;DHT22;46566;52.700;6.192;2022-10-17T10:08:23;16.30;99.90
60717;DHT22;46566;52.700;6.192;2022-10-17T10:11:04;16.30;99.90
60717;DHT22;46566;52.700;6.192;2022-10-17T10:13:33;16.30;99.90
60717;DHT22;46566;52.700;6.192;2022-10-17T10:16:29;16.30;99.90
60717;DHT22;46566;52.700;6.192;2022-10-17T10:18:55;16.30;99.90
60717;DHT22;46566;52.700;6.192;2022-10-17T10:21:23;16.30;99.90
60717;DHT22;46566;52.700;6.192;2022-10-17T10:26:46;16.30;99.90
60717;DHT22;46566;52.700;6.192;2022-10-17T10:32:23;16.20;99.90
60717;DHT22;46566;52.700;6.192;2022-10-17T10:35:20;16.20;99.90
60717;DHT22;46566;52.700;6.192;2022-10-17T10:37:52;16.20;99.90
60717;DHT22;46566;52.700;6.192;2022-10-17T10:40:35;16.10;99.90
60717;DHT22;46566;52.700;6.192;2022-10-17T10:43:04;16.20;99.90
60717;DHT22;46566;52.700;6.192;2022-10-17T10:48:24;16.20;99.90
60717;DHT22;46566;52.700;6.192;2022-10-17T10:50:56;16.20;99.90
60717;DHT22;46566;52.700;6.192;2022-10-17T10:59:03;16.20;99.90
60717;DHT22;46566;52.700;6.192;2022-10-17T11:01:45;16.20;99.90
60717;DHT22;46566;52.700;6.192;2022-10-17T11:04:20;16.20;99.90
60717;DHT22;46566;52.700;6.192;2022-10-17T11:06:51;16.20;99.90
60717;DHT22;46566;52.700;6.192;2022-10-17T11:09:44;16.20;99.90
60717;DHT22;46566;52.700;6.192;2022-10-17T11:18:12;16.30;99.90
60717;DHT22;46566;52.700;6.192;2022-10-17T11:26:10;16.30;99.90
60717;DHT22;46566;52.700;6.192;2022-10-17T11:28:37;16.30;99.90
60717;DHT22;46566;52.700;6.192;2022-10-17T11:31:11;16.30;99.90
60717;DHT22;46566;52.700;6.192;2022-10-17T11:33:58;16.40;99.90
60717;DHT22;46566;52.700;6.192;2022-10-17T11:39:09;16.50;99.90
60717;DHT22;46566;52.700;6.192;2022-10-17T11:41:37;16.50;99.90
60717;DHT22;46566;52.700;6.192;2022-10-17T11:44:23;16.50;99.90
60717;DHT22;46566;52.700;6.192;2022-10-17T11:46:55;16.60;99.90
60717;DHT22;46566;52.700;6.192;2022-10-17T11:49:27;16.60;99.90
60717;DHT22;46566;52.700;6.192;2022-10-17T11:52:04;16.70;99.90
60717;DHT22;46566;52.700;6.192;2022-10-17T11:54:47;16.70;99.90
60717;DHT22;46566;52.700;6.192;2022-10-17T11:57:41;16.70;99.90
60717;DHT22;46566;52.700;6.192;2022-10-17T12:00:18;16.80;99.90
60717;DHT22;46566;52.700;6.192;2022-10-17T12:06:07;16.80;99.90
60717;DHT22;46566;52.700;6.192;2022-10-17T12:11:44;16.80;99.90
60717;DHT22;46566;52.700;6.192;2022-10-17T12:14:44;16.80;99.90
60717;DHT22;46566;52.700;6.192;2022-10-17T12:17:32;16.80;99.90
60717;DHT22;46566;52.700;6.192;2022-10-17T12:20:25;16.80;99.90
60717;DHT22;46566;52.700;6.192;2022-10-17T12:25:28;16.80;99.90
60717;DHT22;46566;52.700;6.192;2022-10-17T12:30:57;16.80;99.90
60717;DHT22;46566;52.700;6.192;2022-10-17T12:38:49;16.70;99.90
60717;DHT22;46566;52.700;6.192;2022-10-17T12:41:16;16.70;99.90
60717;DHT22;46566;52.700;6.192;2022-10-17T12:44:01;16.70;99.90
60717;DHT22;46566;52.700;6.192;2022-10-17T12:52:25;16.60;99.90
60717;DHT22;46566;52.700;6.192;2022-10-17T12:59:48;16.30;99.90
60717;DHT22;46566;52.700;6.192;2022-10-17T13:02:25;16.20;99.90
60717;DHT22;46566;52.700;6.192;2022-10-17T13:05:02;16.20;99.90
60717;DHT22;46566;52.700;6.192;2022-10-17T13:07:29;16.10;99.90
60717;DHT22;46566;52.700;6.192;2022-10-17T13:09:57;16.00;99.90
60717;DHT22;46566;52.700;6.192;2022-10-17T13:12:29;16.00;99.90
60717;DHT22;46566;52.700;6.192;2022-10-17T13:14:56;15.90;99.90
60717;DHT22;46566;52.700;6.192;2022-10-17T13:17:26;15.90;99.90
60717;DHT22;46566;52.700;6.192;2022-10-17T13:19:53;15.80;99.90
60717;DHT22;46566;52.700;6.192;2022-10-17T13:22:25;15.70;99.90
60717;DHT22;46566;52.700;6.192;2022-10-17T13:25:03;15.70;99.90
60717;DHT22;46566;52.700;6.192;2022-10-17T13:27:31;15.60;99.90
60717;DHT22;46566;52.700;6.192;2022-10-17T13:29:59;15.60;99.90
60717;DHT22;46566;52.700;6.192;2022-10-17T13:32:33;15.60;99.90
60717;DHT22;46566;52.700;6.192;2022-10-17T13:35:11;15.60;99.90
60717;DHT22;46566;52.700;6.192;2022-10-17T13:37:39;15.60;99.90
60717;DHT22;46566;52.700;6.192;2022-10-17T13:40:06;15.50;99.90
60717;DHT22;46566;52.700;6.192;2022-10-17T13:42:39;15.50;99.90
60717;DHT22;46566;52.700;6.192;2022-10-17T13:45:30;15.50;99.90
60717;DHT22;46566;52.700;6.192;2022-10-17T13:48:00;15.40;99.90
60717;DHT22;46566;52.700;6.192;2022-10-17T13:50:34;15.50;99.90
60717;DHT22;46566;52.700;6.192;2022-10-17T13:53:11;15.40;99.90
60717;DHT22;46566;52.700;6.192;2022-10-17T13:55:38;15.40;99.90
60717;DHT22;46566;52.700;6.192;2022-10-17T13:58:15;15.40;99.90
60717;DHT22;46566;52.700;6.192;2022-10-17T14:00:43;15.40;99.90
60717;DHT22;46566;52.700;6.192;2022-10-17T14:03:09;15.40;99.90
60717;DHT22;46566;52.700;6.192;2022-10-17T14:05:35;15.40;99.90
60717;DHT22;46566;52.700;6.192;2022-10-17T14:08:21;15.40;99.90
60717;DHT22;46566;52.700;6.192;2022-10-17T14:10:46;15.40;99.90
60717;DHT22;46566;52.700;6.192;2022-10-17T14:15:47;15.40;99.90
60717;DHT22;46566;52.700;6.192;2022-10-17T14:18:18;15.40;99.90
60717;DHT22;46566;52.700;6.192;2022-10-17T14:20:48;15.30;99.90
60717;DHT22;46566;52.700;6.192;2022-10-17T14:26:13;15.30;99.90
60717;DHT22;46566;52.700;6.192;2022-10-17T14:28:41;15.30;99.90
60717;DHT22;46566;52.700;6.192;2022-10-17T14:31:27;15.40;99.90
60717;DHT22;46566;52.700;6.192;2022-10-17T14:33:54;15.40;99.90
60717;DHT22;46566;52.700;6.192;2022-10-17T14:36:33;15.30;99.90
60717;DHT22;46566;52.700;6.192;2022-10-17T14:38:59;15.30;99.90
60717;DHT22;46566;52.700;6.192;2022-10-17T14:41:31;15.30;99.90
60717;DHT22;46566;52.700;6.192;2022-10-17T14:44:07;15.30;99.90
60717;DHT22;46566;52.700;6.192;2022-10-17T14:46:43;15.30;99.90
60717;DHT22;46566;52.700;6.192;2022-10-17T14:49:38;15.30;99.90
60717;DHT22;46566;52.700;6.192;2022-10-17T14:54:44;15.40;99.90
60717;DHT22;46566;52.700;6.192;2022-10-17T14:59:47;15.40;99.90
60717;DHT22;46566;52.700;6.192;2022-10-17T15:02:13;15.50;99.90
60717;DHT22;46566;52.700;6.192;2022-10-17T15:04:39;15.50;99.90
60717;DHT22;46566;52.700;6.192;2022-10-17T15:07:05;15.50;99.90
60717;DHT22;46566;52.700;6.192;2022-10-17T15:09:31;15.50;99.90
60717;DHT22;46566;52.700;6.192;2022-10-17T15:12:05;15.60;99.90
60717;DHT22;46566;52.700;6.192;2022-10-17T15:14:31;15.60;99.90
60717;DHT22;46566;52.700;6.192;2022-10-17T15:16:56;15.60;99.90
60717;DHT22;46566;52.700;6.192;2022-10-17T15:19:22;15.70;99.90
60717;DHT22;46566;52.700;6.192;2022-10-17T15:21:48;15.70;99.90
60717;DHT22;46566;52.700;6.192;2022-10-17T15:24:13;15.70;99.90
60717;DHT22;46566;52.700;6.192;2022-10-17T15:26:40;15.70;99.90
60717;DHT22;46566;52.700;6.192;2022-10-17T15:29:05;15.70;99.90
60717;DHT22;46566;52.700;6.192;2022-10-17T15:31:31;15.70;99.90
60717;DHT22;46566;52.700;6.192;2022-10-17T15:33:57;15.60;99.90
60717;DHT22;46566;52.700;6.192;2022-10-17T15:36:33;15.70;99.90
60717;DHT22;46566;52.700;6.192;2022-10-17T15:39:00;15.60;99.90
60717;DHT22;46566;52.700;6.192;2022-10-17T15:41:28;15.60;99.90
60717;DHT22;46566;52.700;6.192;2022-10-17T15:43:55;15.60;99.90
60717;DHT22;46566;52.700;6.192;2022-10-17T15:46:28;15.60;99.90
60717;DHT22;46566;52.700;6.192;2022-10-17T15:48:55;15.60;99.90
60717;DHT22;46566;52.700;6.192;2022-10-17T15:51:22;15.60;99.90
60717;DHT22;46566;52.700;6.192;2022-10-17T15:53:48;15.60;99.90
60717;DHT22;46566;52.700;6.192;2022-10-17T15:56:23;15.60;99.90
60717;DHT22;46566;52.700;6.192;2022-10-17T15:58:50;15.60;99.90
60717;DHT22;46566;52.700;6.192;2022-10-17T16:01:42;15.50;99.90
60717;DHT22;46566;52.700;6.192;2022-10-17T16:04:12;15.50;99.90
60717;DHT22;46566;52.700;6.192;2022-10-17T16:06:40;15.50;99.90
60717;DHT22;46566;52.700;6.192;2022-10-17T16:09:06;15.50;99.90
60717;DHT22;46566;52.700;6.192;2022-10-17T16:14:10;15.50;99.90
60717;DHT22;46566;52.700;6.192;2022-10-17T16:16:36;15.40;99.90
60717;DHT22;46566;52.700;6.192;2022-10-17T16:19:02;15.40;99.90
60717;DHT22;46566;52.700;6.192;2022-10-17T16:21:31;15.40;99.90
60717;DHT22;46566;52.700;6.192;2022-10-17T16:23:58;15.30;99.90
60717;DHT22;46566;52.700;6.192;2022-10-17T16:26:25;15.30;99.90
60717;DHT22;46566;52.700;6.192;2022-10-17T16:28:51;15.30;99.90
60717;DHT22;46566;52.700;6.192;2022-10-17T16:31:25;15.30;99.90
60717;DHT22;46566;52.700;6.192;2022-10-17T16:33:54;15.30;99.90
60717;DHT22;46566;52.700;6.192;2022-10-17T16:36:20;15.20;99.90
60717;DHT22;46566;52.700;6.192;2022-10-17T16:38:46;15.20;99.90
60717;DHT22;46566;52.700;6.192;2022-10-17T16:41:26;15.20;99.90
60717;DHT22;46566;52.700;6.192;2022-10-17T16:43:54;15.20;99.90
60717;DHT22;46566;52.700;6.192;2022-10-17T16:46:21;15.20;99.90
60717;DHT22;46566;52.700;6.192;2022-10-17T16:48:47;15.20;99.90
60717;DHT22;46566;52.700;6.192;2022-10-17T16:51:13;15.20;99.90
60717;DHT22;46566;52.700;6.192;2022-10-17T16:53:40;15.10;99.90
60717;DHT22;46566;52.700;6.192;2022-10-17T16:56:18;15.10;99.90
60717;DHT22;46566;52.700;6.192;2022-10-17T16:58:44;15.10;99.90
60717;DHT22;46566;52.700;6.192;2022-10-17T17:01:13;15.10;99.90
60717;DHT22;46566;52.700;6.192;2022-10-17T17:03:42;15.10;99.90
60717;DHT22;46566;52.700;6.192;2022-10-17T17:06:12;15.10;99.90
60717;DHT22;46566;52.700;6.192;2022-10-17T17:08:38;15.00;99.90
60717;DHT22;46566;52.700;6.192;2022-10-17T17:11:08;15.00;99.90
60717;DHT22;46566;52.700;6.192;2022-10-17T17:13:35;15.00;99.90
60717;DHT22;46566;52.700;6.192;2022-10-17T17:16:06;15.00;99.90
60717;DHT22;46566;52.700;6.192;2022-10-17T17:18:32;15.00;99.90
60717;DHT22;46566;52.700;6.192;2022-10-17T17:20:59;15.00;99.90
60717;DHT22;46566;52.700;6.192;2022-10-17T17:23:26;15.00;99.90
60717;DHT22;46566;52.700;6.192;2022-10-17T17:26:03;15.00;99.90
60717;DHT22;46566;52.700;6.192;2022-10-17T17:28:30;15.00;99.90
60717;DHT22;46566;52.700;6.192;2022-10-17T17:30:56;15.00;99.90
60717;DHT22;46566;52.700;6.192;2022-10-17T17:33:22;15.00;99.90
60717;DHT22;46566;52.700;6.192;2022-10-17T17:35:56;15.00;99.90
60717;DHT22;46566;52.700;6.192;2022-10-17T17:38:25;14.90;99.90
60717;DHT22;46566;52.700;6.192;2022-10-17T17:40:52;15.00;99.90
60717;DHT22;46566;52.700;6.192;2022-10-17T17:43:18;14.90;99.90
60717;DHT22;46566;52.700;6.192;2022-10-17T17:45:44;14.90;99.90
60717;DHT22;46566;52.700;6.192;2022-10-17T17:48:11;14.90;99.90
60717;DHT22;46566;52.700;6.192;2022-10-17T17:50:37;14.90;99.90
60717;DHT22;46566;52.700;6.192;2022-10-17T17:53:04;14.90;99.90
60717;DHT22;46566;52.700;6.192;2022-10-17T17:55:30;14.90;99.90